Time;durP1;ratioP1;P1;durP2;ratioP2;P2;SDS_P1;SDS_P2;PMS_P1;PMS_P2;Temp;Humidity;BMP_temperature;BMP_pressure;BME280_temperature;BME280_humidity;BME280_pressure;Samples;Min_cycle;Max_cycle;Signal;HPM_P1;HPM_P2
2023/02/16 00:00:22;;;;;;;;;;;;;;;5.31;nan;102362.88;4982923;28;20388;-84
2023/02/16 00:02:47;;;;;;;;;;;;;;;5.31;nan;102361.03;4984145;28;19926;-84
2023/02/16 00:05:32;;;;;;;;;;;;;;;5.32;nan;102348.59;4985806;28;19922;-84
2023/02/16 00:07:58;;;;;;;;;;;;;;;5.30;nan;102358.56;4982724;28;19917;-84
2023/02/16 00:10:24;;;;;;;;;;;;;;;5.29;nan;102364.88;4984423;28;20496;-83
2023/02/16 00:15:34;;;;;;;;;;;;;;;5.23;nan;102363.75;4979112;28;20414;-84
2023/02/16 00:18:01;;;;;;;;;;;;;;;5.23;nan;102361.09;4981920;28;19918;-84
2023/02/16 00:20:29;;;;;;;;;;;;;;;5.22;nan;102358.63;4981044;28;19981;-84
2023/02/16 00:22:54;;;;;;;;;;;;;;;5.22;nan;102364.75;4984445;28;20456;-83
2023/02/16 00:25:19;;;;;;;;;;;;;;;5.22;nan;102359.44;4980757;28;20034;-84
2023/02/16 00:27:45;;;;;;;;;;;;;;;5.22;nan;102361.28;4982812;28;19925;-84
2023/02/16 00:30:18;;;;;;;;;;;;;;;5.22;nan;102369.25;4981247;28;19979;-84
2023/02/16 00:32:43;;;;;;;;;;;;;;;5.23;nan;102370.91;4983655;28;19918;-84
2023/02/16 00:35:13;;;;;;;;;;;;;;;5.24;nan;102368.06;4984090;28;20300;-84
2023/02/16 00:37:38;;;;;;;;;;;;;;;5.26;nan;102366.06;4981968;28;20213;-83
2023/02/16 00:40:03;;;;;;;;;;;;;;;5.22;nan;102359.44;4983530;28;19922;-84
2023/02/16 00:42:31;;;;;;;;;;;;;;;5.20;nan;102371.22;4984560;28;20514;-84
2023/02/16 00:44:57;;;;;;;;;;;;;;;5.17;nan;102364.44;4985196;28;19917;-84
2023/02/16 00:47:26;;;;;;;;;;;;;;;5.15;nan;102369.91;4982912;28;19925;-84
2023/02/16 00:49:53;;;;;;;;;;;;;;;5.09;nan;102380.41;4981500;28;19918;-83
2023/02/16 00:52:38;;;;;;;;;;;;;;;5.07;nan;102388.56;4967989;28;19965;-84
2023/02/16 00:55:05;;;;;;;;;;;;;;;5.07;nan;102383.25;4980587;28;20083;-83
2023/02/16 00:57:33;;;;;;;;;;;;;;;5.06;nan;102381.59;4983749;28;20319;-84
2023/02/16 01:00:13;;;;;;;;;;;;;;;5.08;nan;102382.25;4981253;28;19933;-84
2023/02/16 01:02:39;;;;;;;;;;;;;;;5.08;nan;102374.28;4985702;28;19918;-84
2023/02/16 01:05:04;;;;;;;;;;;;;;;5.08;nan;102374.28;4982435;28;19965;-84
2023/02/16 01:13:00;;;;;;;;;;;;;;;5.03;nan;102373.97;4984237;28;19941;-83
2023/02/16 01:15:25;;;;;;;;;;;;;;;5.03;nan;102363.34;4978103;28;20338;-83
2023/02/16 01:17:50;;;;;;;;;;;;;;;5.05;nan;102365.81;4982813;28;19922;-84
2023/02/16 01:20:17;;;;;;;;;;;;;;;5.05;nan;102361.34;4980899;28;19933;-84
2023/02/16 01:22:42;;;;;;;;;;;;;;;5.05;nan;102353.38;4978405;28;20074;-83
2023/02/16 01:25:08;;;;;;;;;;;;;;;5.07;nan;102361.16;4980584;28;20358;-84
2023/02/16 01:27:36;;;;;;;;;;;;;;;5.05;nan;102356.03;4979368;28;19918;-84
2023/02/16 01:30:01;;;;;;;;;;;;;;;5.03;nan;102359.88;4980189;28;19924;-84
2023/02/16 01:32:27;;;;;;;;;;;;;;;5.00;nan;102347.72;4976842;28;20008;-84
2023/02/16 01:34:52;;;;;;;;;;;;;;;5.00;nan;102345.06;4977608;28;20291;-84
2023/02/16 01:37:18;;;;;;;;;;;;;;;4.97;nan;102350.72;4980748;28;19918;-84
2023/02/16 01:39:43;;;;;;;;;;;;;;;4.96;nan;102348.25;4980165;28;19929;-84
2023/02/16 01:42:15;;;;;;;;;;;;;;;4.95;nan;102347.41;4980051;28;19918;-84
2023/02/16 01:44:47;;;;;;;;;;;;;;;4.97;nan;102355.22;4977719;28;20016;-84
2023/02/16 01:47:12;;;;;;;;;;;;;;;4.96;nan;102353.56;4978526;28;20432;-83
2023/02/16 01:49:37;;;;;;;;;;;;;;;4.94;nan;102356.38;4980036;28;19924;-84
2023/02/16 01:52:12;;;;;;;;;;;;;;;4.92;nan;102347.78;4981416;28;20231;-84
2023/02/16 01:54:57;;;;;;;;;;;;;;;4.92;nan;102346.94;4978817;28;19921;-84
2023/02/16 01:57:41;;;;;;;;;;;;;;;4.89;nan;102342.81;4976627;28;20035;-83
2023/02/16 02:05:57;;;;;;;;;;;;;;;4.84;nan;102342.47;4977189;28;19925;-84
2023/02/16 02:08:29;;;;;;;;;;;;;;;4.83;nan;102344.28;4977124;28;19921;-84
2023/02/16 02:11:08;;;;;;;;;;;;;;;4.80;nan;102341.16;4980595;28;19918;-84
2023/02/16 02:13:40;;;;;;;;;;;;;;;4.77;nan;102339.69;4981074;28;20335;-84
2023/02/16 02:16:06;;;;;;;;;;;;;;;4.78;nan;102333.38;4973662;28;20004;-83
2023/02/16 02:18:32;;;;;;;;;;;;;;;4.78;nan;102329.88;4980187;28;20101;-83
2023/02/16 02:23:58;;;;;;;;;;;;;;;4.76;nan;102334.53;4981870;28;19973;-83
2023/02/16 02:26:29;;;;;;;;;;;;;;;4.73;nan;102332.22;4982584;28;20402;-83
2023/02/16 02:29:04;;;;;;;;;;;;;;;4.71;nan;102329.75;4975781;28;20349;-84
2023/02/16 02:31:48;;;;;;;;;;;;;;;4.69;nan;102328.28;4964038;28;19918;-83
2023/02/16 02:34:14;;;;;;;;;;;;;;;4.68;nan;102330.09;4981249;28;21340;-83
2023/02/16 02:37:04;;;;;;;;;;;;;;;4.71;nan;102328.94;4964468;28;19918;-83
2023/02/16 02:39:41;;;;;;;;;;;;;;;4.71;nan;102324.44;4972313;28;20364;-84
2023/02/16 02:42:07;;;;;;;;;;;;;;;4.75;nan;102309.81;4978880;28;20447;-83
2023/02/16 02:44:35;;;;;;;;;;;;;;;4.75;nan;102309.81;4980502;28;19963;-83
2023/02/16 02:47:00;;;;;;;;;;;;;;;4.75;nan;102315.13;4978416;28;19918;-84
2023/02/16 02:49:26;;;;;;;;;;;;;;;4.76;nan;102318.63;4974112;28;20008;-83
2023/02/16 02:51:51;;;;;;;;;;;;;;;4.75;nan;102309.81;4976621;28;19922;-83
2023/02/16 03:03:01;;;;;;;;;;;;;;;4.70;nan;102292.75;4965849;28;19932;-83
2023/02/16 03:05:28;;;;;;;;;;;;;;;4.70;nan;102290.09;4970990;28;19926;-83
2023/02/16 03:08:05;;;;;;;;;;;;;;;4.74;nan;102289.56;4971792;28;19929;-84
2023/02/16 03:13:20;;;;;;;;;;;;;;;4.84;nan;102297.31;4968398;28;19969;-84
2023/02/16 03:15:46;;;;;;;;;;;;;;;4.85;nan;102288.38;4972289;28;19965;-83
2023/02/16 03:29:23;;;;;;;;;;;;;;;4.90;nan;102293.16;4979976;28;20349;-83
2023/02/16 03:31:50;;;;;;;;;;;;;;;4.89;nan;102304.78;4983104;28;20048;-84
2023/02/16 03:34:16;;;;;;;;;;;;;;;4.90;nan;102304.63;4976852;28;19917;-83
2023/02/16 03:36:43;;;;;;;;;;;;;;;4.93;nan;102298.97;4979847;28;19926;-83
2023/02/16 03:39:09;;;;;;;;;;;;;;;4.95;nan;102296.97;4980237;28;20335;-84
2023/02/16 03:41:39;;;;;;;;;;;;;;;4.98;nan;102293.94;4981978;28;19918;-83
2023/02/16 03:44:05;;;;;;;;;;;;;;;4.98;nan;102296.59;4973758;28;20492;-83
2023/02/16 03:46:30;;;;;;;;;;;;;;;5.01;nan;102292.75;4975881;28;19918;-83
2023/02/16 03:48:55;;;;;;;;;;;;;;;5.02;nan;102289.94;4981969;28;19980;-84
2023/02/16 03:51:21;;;;;;;;;;;;;;;5.04;nan;102285.31;4982237;28;19921;-84
2023/02/16 03:53:46;;;;;;;;;;;;;;;5.05;nan;102279.00;4983179;28;19918;-84
2023/02/16 03:56:12;;;;;;;;;;;;;;;5.04;nan;102274.69;4976810;28;19933;-83
2023/02/16 03:58:37;;;;;;;;;;;;;;;5.03;nan;102275.69;4983832;28;20017;-84
2023/02/16 04:01:03;;;;;;;;;;;;;;;5.03;nan;102275.69;4967498;28;19965;-84
2023/02/16 04:03:28;;;;;;;;;;;;;;;5.02;nan;102274.00;4983427;28;19922;-84
2023/02/16 04:05:55;;;;;;;;;;;;;;;5.02;nan;102263.38;4980924;28;19925;-84
2023/02/16 04:08:20;;;;;;;;;;;;;;;5.04;nan;102272.03;4977901;28;19973;-84
2023/02/16 04:10:46;;;;;;;;;;;;;;;5.05;nan;102270.19;4982121;28;19918;-84
2023/02/16 04:13:11;;;;;;;;;;;;;;;5.05;nan;102264.88;4983691;28;19933;-83
2023/02/16 04:15:36;;;;;;;;;;;;;;;5.06;nan;102267.34;4978814;28;19921;-83
2023/02/16 04:18:02;;;;;;;;;;;;;;;5.10;nan;102259.88;4982246;28;20062;-84
2023/02/16 04:20:29;;;;;;;;;;;;;;;5.11;nan;102257.03;4981518;28;20499;-84
2023/02/16 04:22:55;;;;;;;;;;;;;;;5.12;nan;102257.84;4982385;28;19959;-84
2023/02/16 04:25:20;;;;;;;;;;;;;;;5.14;nan;102266.47;4982985;28;20401;-84
2023/02/16 04:27:48;;;;;;;;;;;;;;;5.17;nan;102263.47;4983331;28;20450;-83
2023/02/16 04:30:15;;;;;;;;;;;;;;;5.21;nan;102269.28;4981049;28;19928;-84
2023/02/16 04:32:40;;;;;;;;;;;;;;;5.22;nan;102278.91;4984614;28;19921;-84
2023/02/16 04:35:06;;;;;;;;;;;;;;;5.24;nan;102280.38;4983227;28;20032;-84
2023/02/16 04:37:32;;;;;;;;;;;;;;;5.24;nan;102276.88;4983529;28;20327;-84
2023/02/16 04:39:57;;;;;;;;;;;;;;;5.22;nan;102269.09;4980342;28;19922;-84
2023/02/16 04:42:22;;;;;;;;;;;;;;;5.22;nan;102269.09;4980930;28;20065;-83
2023/02/16 04:44:48;;;;;;;;;;;;;;;5.23;nan;102267.28;4981812;28;20806;-84
2023/02/16 04:47:13;;;;;;;;;;;;;;;5.26;nan;102264.25;4983792;28;19922;-84
2023/02/16 04:49:39;;;;;;;;;;;;;;;5.28;nan;102267.56;4982630;28;19943;-83
2023/02/16 04:52:04;;;;;;;;;;;;;;;5.30;nan;102268.22;4981213;28;20342;-83
2023/02/16 04:54:30;;;;;;;;;;;;;;;5.31;nan;102273.34;4982633;28;19922;-84
2023/02/16 04:56:55;;;;;;;;;;;;;;;5.32;nan;102271.50;4980655;28;19928;-83
2023/02/16 04:59:21;;;;;;;;;;;;;;;5.32;nan;102274.16;4980934;28;20023;-83
2023/02/16 05:01:47;;;;;;;;;;;;;;;5.32;nan;102268.84;4979930;28;19918;-84
2023/02/16 05:04:13;;;;;;;;;;;;;;;5.31;nan;102259.22;4977853;28;20526;-83
2023/02/16 05:06:38;;;;;;;;;;;;;;;5.32;nan;102252.91;4967123;28;19918;-84
2023/02/16 05:09:07;;;;;;;;;;;;;;;5.32;nan;102256.38;4982438;28;20437;-83
2023/02/16 05:17:06;;;;;;;;;;;;;;;5.38;nan;102261.00;4981627;28;19925;-84
2023/02/16 05:19:32;;;;;;;;;;;;;;;5.42;nan;102264.16;4983948;28;20366;-83
2023/02/16 05:21:58;;;;;;;;;;;;;;;5.42;nan;102262.31;4984408;28;19972;-83
2023/02/16 05:24:23;;;;;;;;;;;;;;;5.45;nan;102261.13;4979898;28;20371;-84
2023/02/16 05:26:48;;;;;;;;;;;;;;;5.45;nan;102259.28;4980797;28;20526;-84
2023/02/16 05:29:14;;;;;;;;;;;;;;;5.45;nan;102264.63;4965141;28;19926;-84
2023/02/16 05:31:39;;;;;;;;;;;;;;;5.44;nan;102264.78;4981401;28;19988;-84
2023/02/16 05:34:04;;;;;;;;;;;;;;;5.46;nan;102268.09;4978790;28;20180;-84
2023/02/16 05:36:30;;;;;;;;;;;;;;;5.47;nan;102272.41;4975817;28;19926;-84
2023/02/16 05:38:55;;;;;;;;;;;;;;;5.46;nan;102282.22;4979361;28;19949;-83
2023/02/16 05:41:23;;;;;;;;;;;;;;;5.45;nan;102279.75;4980185;28;20434;-83
2023/02/16 05:43:50;;;;;;;;;;;;;;;5.44;nan;102288.72;4982604;28;20025;-84
2023/02/16 05:46:15;;;;;;;;;;;;;;;5.45;nan;102277.09;4963428;28;19926;-84
2023/02/16 05:48:41;;;;;;;;;;;;;;;5.47;nan;102277.72;4976457;28;19929;-84
2023/02/16 05:51:06;;;;;;;;;;;;;;;5.47;nan;102281.22;4982691;28;20158;-84
2023/02/16 05:53:32;;;;;;;;;;;;;;;5.47;nan;102272.41;4980689;28;19929;-84
2023/02/16 05:55:57;;;;;;;;;;;;;;;5.46;nan;102278.72;4978160;28;20362;-83
2023/02/16 05:58:22;;;;;;;;;;;;;;;5.44;nan;102270.09;4975642;28;20107;-84
2023/02/16 06:00:48;;;;;;;;;;;;;;;5.38;nan;102268.97;4976198;28;19922;-84
2023/02/16 06:03:13;;;;;;;;;;;;;;;5.34;nan;102272.16;4978435;28;19926;-84
2023/02/16 06:05:39;;;;;;;;;;;;;;;5.30;nan;102277.00;4976498;28;19918;-83
2023/02/16 06:08:04;;;;;;;;;;;;;;;5.30;nan;102282.31;4978799;28;20024;-84
2023/02/16 06:10:29;;;;;;;;;;;;;;;5.33;nan;102281.97;4976754;28;20016;-84
2023/02/16 06:12:55;;;;;;;;;;;;;;;5.36;nan;102270.16;4981976;28;19917;-84
2023/02/16 06:15:20;;;;;;;;;;;;;;;5.37;nan;102282.44;4979368;28;19918;-83
2023/02/16 06:17:48;;;;;;;;;;;;;;;5.39;nan;102275.97;4975987;28;20566;-84
2023/02/16 06:20:13;;;;;;;;;;;;;;;5.41;nan;102273.13;4978761;28;20087;-84
2023/02/16 06:22:39;;;;;;;;;;;;;;;5.40;nan;102277.63;4978145;28;20430;-83
2023/02/16 06:25:04;;;;;;;;;;;;;;;5.42;nan;102280.09;4981851;28;20383;-83
2023/02/16 06:27:30;;;;;;;;;;;;;;;5.43;nan;102277.25;4980287;28;20283;-84
2023/02/16 06:29:55;;;;;;;;;;;;;;;5.45;nan;102274.41;4978426;28;20003;-84
2023/02/16 06:32:20;;;;;;;;;;;;;;;5.46;nan;102281.38;4974675;28;19925;-83
2023/02/16 06:34:46;;;;;;;;;;;;;;;5.46;nan;102271.59;4964374;28;19918;-83
2023/02/16 06:37:11;;;;;;;;;;;;;;;5.47;nan;102283.03;4980580;28;20016;-83
2023/02/16 06:39:36;;;;;;;;;;;;;;;5.47;nan;102275.06;4985317;28;19922;-83
2023/02/16 06:42:02;;;;;;;;;;;;;;;5.49;nan;102259.75;4982896;28;19933;-82
2023/02/16 06:44:27;;;;;;;;;;;;;;;5.47;nan;102261.78;4979275;28;19988;-83
2023/02/16 06:46:53;;;;;;;;;;;;;;;5.41;nan;102262.50;4975859;28;19922;-83
2023/02/16 06:49:19;;;;;;;;;;;;;;;5.43;nan;102261.31;4974181;28;19926;-82
2023/02/16 06:51:44;;;;;;;;;;;;;;;5.42;nan;102264.16;4978967;28;20010;-83
2023/02/16 06:54:10;;;;;;;;;;;;;;;5.45;nan;102277.91;4980577;28;20012;-83
2023/02/16 06:56:35;;;;;;;;;;;;;;;5.50;nan;102282.69;4983949;28;19982;-82
2023/02/16 06:59:01;;;;;;;;;;;;;;;5.54;nan;102281.31;4975883;28;19926;-83
2023/02/16 07:01:27;;;;;;;;;;;;;;;5.60;nan;102283.28;4977775;28;19918;-83
2023/02/16 07:03:53;;;;;;;;;;;;;;;5.61;nan;102294.75;4979418;28;20005;-83
2023/02/16 07:06:19;;;;;;;;;;;;;;;5.64;nan;102292.56;4982129;28;19924;-83
2023/02/16 07:08:45;;;;;;;;;;;;;;;5.66;nan;102295.88;4982331;28;19968;-83
2023/02/16 07:11:11;;;;;;;;;;;;;;;5.70;nan;102293.66;4981752;28;19922;-84
2023/02/16 07:13:36;;;;;;;;;;;;;;;5.73;nan;102283.50;4979191;28;19989;-83
2023/02/16 07:16:03;;;;;;;;;;;;;;;5.75;nan;102281.50;4976203;28;20008;-83
2023/02/16 07:18:28;;;;;;;;;;;;;;;5.77;nan;102289.31;4979212;28;20380;-83
2023/02/16 07:20:54;;;;;;;;;;;;;;;5.81;nan;102284.44;4981996;28;19928;-82
2023/02/16 07:23:20;;;;;;;;;;;;;;;5.86;nan;102277.59;4990455;28;19957;-83
2023/02/16 07:25:45;;;;;;;;;;;;;;;5.89;nan;102279.88;4989310;28;19924;-83
2023/02/16 07:28:11;;;;;;;;;;;;;;;5.91;nan;102279.72;4986667;28;20020;-82
2023/02/16 07:30:36;;;;;;;;;;;;;;;5.95;nan;102275.72;4985366;28;19918;-82
2023/02/16 07:33:01;;;;;;;;;;;;;;;6.00;nan;102265.34;4984570;28;19922;-83
2023/02/16 07:35:27;;;;;;;;;;;;;;;6.07;nan;102271.59;4981845;28;19929;-82
2023/02/16 07:37:52;;;;;;;;;;;;;;;6.11;nan;102269.44;4984588;28;20311;-83
2023/02/16 07:40:18;;;;;;;;;;;;;;;6.18;nan;102273.84;4986976;28;19922;-83
2023/02/16 07:42:43;;;;;;;;;;;;;;;6.17;nan;102263.38;4985589;28;19928;-84
2023/02/16 07:45:08;;;;;;;;;;;;;;;6.16;nan;102278.50;4988642;28;19920;-83
2023/02/16 07:47:34;;;;;;;;;;;;;;;6.16;nan;102278.50;4988013;28;20021;-82
2023/02/16 07:49:59;;;;;;;;;;;;;;;6.20;nan;102278.97;4982556;28;19917;-83
2023/02/16 07:52:29;;;;;;;;;;;;;;;6.19;nan;102272.81;4988491;28;20417;-83
2023/02/16 07:54:55;;;;;;;;;;;;;;;6.22;nan;102274.28;4988878;28;19924;-83
2023/02/16 07:57:21;;;;;;;;;;;;;;;6.27;nan;102271.91;4980544;28;19926;-83
2023/02/16 07:59:46;;;;;;;;;;;;;;;6.34;nan;102275.50;4980759;28;19922;-82
2023/02/16 08:02:15;;;;;;;;;;;;;;;6.42;nan;102272.75;4984426;28;19956;-83
2023/02/16 08:04:41;;;;;;;;;;;;;;;6.49;nan;102271.00;4990672;28;19917;-83
2023/02/16 08:07:06;;;;;;;;;;;;;;;6.58;nan;102266.41;4982984;28;20393;-83
2023/02/16 08:09:32;;;;;;;;;;;;;;;6.66;nan;102267.16;4987557;28;19918;-82
2023/02/16 08:11:58;;;;;;;;;;;;;;;6.66;nan;102269.00;4984900;28;19980;-83
2023/02/16 08:14:23;;;;;;;;;;;;;;;6.68;nan;102261.63;4984565;28;20395;-83
2023/02/16 08:16:49;;;;;;;;;;;;;;;6.73;nan;102263.75;4988560;28;20008;-83
2023/02/16 08:19:14;;;;;;;;;;;;;;;6.74;nan;102270.72;4987437;28;19933;-82
2023/02/16 08:21:40;;;;;;;;;;;;;;;6.85;nan;102270.25;4979778;28;20419;-82
2023/02/16 08:24:07;;;;;;;;;;;;;;;6.96;nan;102273.25;4989099;28;20373;-83
2023/02/16 08:26:38;;;;;;;;;;;;;;;7.11;nan;102277.72;4982447;28;19932;-83
2023/02/16 08:29:04;;;;;;;;;;;;;;;7.19;nan;102280.28;4985178;28;20384;-83
2023/02/16 08:31:30;;;;;;;;;;;;;;;7.28;nan;102279.97;4984707;28;20045;-83
2023/02/16 08:33:56;;;;;;;;;;;;;;;7.36;nan;102281.72;4987213;28;20582;-83
2023/02/16 08:36:23;;;;;;;;;;;;;;;7.47;nan;102283.84;4982604;28;20107;-83
2023/02/16 08:38:49;;;;;;;;;;;;;;;7.61;nan;102278.66;4985854;28;19918;-83
2023/02/16 08:41:15;;;;;;;;;;;;;;;7.67;nan;102272.56;4981349;28;19925;-82
2023/02/16 08:43:41;;;;;;;;;;;;;;;7.75;nan;102283.09;4988076;28;20006;-83
2023/02/16 08:46:06;;;;;;;;;;;;;;;7.85;nan;102278.25;4982683;28;20028;-83
2023/02/16 08:48:34;;;;;;;;;;;;;;;7.96;nan;102275.06;4979325;28;19918;-83
2023/02/16 08:50:59;;;;;;;;;;;;;;;8.05;nan;102265.88;4981156;28;20408;-84
2023/02/16 08:53:26;;;;;;;;;;;;;;;8.03;nan;102270.59;4983609;28;19929;-83
2023/02/16 08:55:55;;;;;;;;;;;;;;;8.12;nan;102271.28;4984164;28;20060;-84
2023/02/16 08:58:21;;;;;;;;;;;;;;;8.15;nan;102270.91;4977199;28;19922;-84
2023/02/16 09:00:46;;;;;;;;;;;;;;;8.20;nan;102273.78;4983784;28;19922;-84
2023/02/16 09:03:12;;;;;;;;;;;;;;;8.27;nan;102271.19;4986706;28;19917;-84
2023/02/16 09:05:38;;;;;;;;;;;;;;;8.42;nan;102280.75;4984455;28;19918;-84
2023/02/16 09:08:03;;;;;;;;;;;;;;;8.59;nan;102275.09;4981780;28;19926;-83
2023/02/16 09:10:28;;;;;;;;;;;;;;;8.62;nan;102282.72;4981040;28;19918;-84
2023/02/16 09:12:54;;;;;;;;;;;;;;;8.64;nan;102286.84;4985275;28;19925;-84
2023/02/16 09:15:22;;;;;;;;;;;;;;;8.80;nan;102275.00;4986404;28;19918;-83
2023/02/16 09:17:48;;;;;;;;;;;;;;;8.84;nan;102280.78;4982962;28;19917;-85
2023/02/16 09:20:14;;;;;;;;;;;;;;;8.88;nan;102276.69;4977487;28;19929;-84
2023/02/16 09:22:43;;;;;;;;;;;;;;;8.97;nan;102273.63;4984730;28;20009;-84
2023/02/16 09:25:10;;;;;;;;;;;;;;;9.04;nan;102268.31;4981504;28;19917;-84
2023/02/16 09:27:35;;;;;;;;;;;;;;;9.14;nan;102267.91;4987114;28;19968;-84
2023/02/16 09:30:01;;;;;;;;;;;;;;;9.22;nan;102267.75;4976437;28;19930;-85
2023/02/16 09:32:27;;;;;;;;;;;;;;;9.35;nan;102268.59;4982279;28;19921;-84
2023/02/16 09:34:52;;;;;;;;;;;;;;;9.55;nan;102274.00;4981036;28;20008;-84
2023/02/16 09:37:18;;;;;;;;;;;;;;;9.67;nan;102266.16;4964937;28;20044;-84
2023/02/16 09:39:43;;;;;;;;;;;;;;;9.80;nan;102262.66;4989563;28;19968;-86
2023/02/16 09:42:24;;;;;;;;;;;;;;;9.92;nan;102269.88;4983649;28;20387;-85
2023/02/16 09:45:02;;;;;;;;;;;;;;;10.07;nan;102267.00;4987301;28;19964;-86
2023/02/16 09:47:29;;;;;;;;;;;;;;;10.16;nan;102263.06;4984537;28;19924;-86
2023/02/16 09:49:57;;;;;;;;;;;;;;;10.36;nan;102260.38;4991050;28;20028;-86
2023/02/16 09:52:23;;;;;;;;;;;;;;;10.47;nan;102267.78;4984332;28;20450;-86
2023/02/16 09:54:51;;;;;;;;;;;;;;;10.56;nan;102260.31;4989218;28;19918;-85
2023/02/16 09:57:28;;;;;;;;;;;;;;;10.68;nan;102263.19;4988509;28;20004;-85
2023/02/16 10:00:06;;;;;;;;;;;;;;;10.72;nan;102253.66;4987959;28;19965;-85
2023/02/16 10:02:50;;;;;;;;;;;;;;;10.85;nan;102253.63;4982511;28;19918;-85
2023/02/16 10:05:22;;;;;;;;;;;;;;;11.03;nan;102256.44;4985924;28;19956;-85
2023/02/16 10:08:03;;;;;;;;;;;;;;;11.08;nan;102251.22;4987072;28;19920;-86
2023/02/16 10:10:33;;;;;;;;;;;;;;;11.22;nan;102245.81;4989564;28;20004;-85
2023/02/16 10:13:04;;;;;;;;;;;;;;;11.38;nan;102248.78;4983604;28;19933;-85
2023/02/16 10:15:32;;;;;;;;;;;;;;;11.61;nan;102244.69;4980936;28;19937;-85
2023/02/16 10:17:59;;;;;;;;;;;;;;;11.71;nan;102243.19;4981236;28;19926;-85
2023/02/16 10:20:27;;;;;;;;;;;;;;;11.83;nan;102237.13;4990715;28;19953;-85
2023/02/16 10:23:12;;;;;;;;;;;;;;;11.84;nan;102241.44;4983880;28;19980;-85
2023/02/16 10:25:47;;;;;;;;;;;;;;;11.91;nan;102242.22;4986716;28;19922;-85
2023/02/16 10:28:16;;;;;;;;;;;;;;;12.03;nan;102243.16;4981047;28;19924;-85
2023/02/16 10:30:45;;;;;;;;;;;;;;;12.11;nan;102248.22;4981162;28;19922;-88
2023/02/16 10:33:11;;;;;;;;;;;;;;;12.34;nan;102248.41;4978999;28;19925;-86
2023/02/16 10:35:42;;;;;;;;;;;;;;;12.49;nan;102247.22;4983154;28;19917;-87
2023/02/16 10:38:08;;;;;;;;;;;;;;;12.59;nan;102245.66;4978537;28;20007;-86
2023/02/16 10:40:39;;;;;;;;;;;;;;;12.77;nan;102244.81;4981850;28;20431;-85
2023/02/16 10:43:23;;;;;;;;;;;;;;;12.88;nan;102249.41;4981595;28;19922;-86
2023/02/16 10:45:50;;;;;;;;;;;;;;;12.98;nan;102252.41;4979698;28;19921;-86
2023/02/16 10:48:19;;;;;;;;;;;;;;;13.14;nan;102247.44;4981794;28;19928;-87
2023/02/16 10:51:32;;;;;;;;;;;;;;;13.34;nan;102237.22;4982092;28;19925;-87
2023/02/16 11:03:36;;;;;;;;;;;;;;;14.08;nan;102225.00;4815439;29;19927;-88
2023/02/16 11:06:39;;;;;;;;;;;;;;;;;;;;;
2023/02/16 11:09:33;;;;;;;;;;;;;;;;;;;;;
2023/02/16 11:12:35;;;;;;;;;;;;;;;;;;;;;
2023/02/16 11:19:14;;;;;;;;;;;;;;;14.44;nan;102220.41;4867234;29;20373;-87
2023/02/16 11:22:57;;;;;;;;;;;;;;;;;;;;;
2023/02/16 11:24:58;;;;;;;;;;;;;;;14.87;nan;102213.72;4803416;29;19924;-87
2023/02/16 11:27:24;;;;;;;;;;;;;;;14.87;nan;102211.00;4829680;29;19962;-87
2023/02/16 11:30:20;;;;;;;;;;;;;;;;;;;;;
2023/02/16 11:33:08;;;;;;;;;;;;;;;15.02;nan;102200.50;4942528;28;19926;-87
2023/02/16 11:35:41;;;;;;;;;;;;;;;15.05;nan;102206.22;4949402;28;19921;-88
2023/02/16 11:38:46;;;;;;;;;;;;;;;;;;;;;
2023/02/16 11:41:48;;;;;;;;;;;;;;;;;;;;;
2023/02/16 11:51:20;;;;;;;;;;;;;;;15.27;nan;102192.88;4821615;29;19924;-88
2023/02/16 11:54:01;;;;;;;;;;;;;;;15.30;nan;102195.06;4818371;29;20015;-89
2023/02/16 11:56:43;;;;;;;;;;;;;;;15.30;nan;102189.69;4842980;29;19971;-87
2023/02/16 11:59:58;;;;;;;;;;;;;;;15.40;nan;102178.19;4834236;29;19935;-86
2023/02/16 12:03:08;;;;;;;;;;;;;;;15.54;nan;102176.00;4841399;29;20050;-86
2023/02/16 12:06:14;;;;;;;;;;;;;;;15.67;nan;102181.09;4835660;29;19929;-87
2023/02/16 13:24:37;;;;;;;;;;;;;;;17.94;nan;102118.72;4856595;29;19961;-87
2023/02/16 13:27:08;;;;;;;;;;;;;;;17.93;nan;102122.53;4877347;29;20512;-91
2023/02/16 13:29:51;;;;;;;;;;;;;;;18.06;nan;102111.19;4886555;29;20292;-86
2023/02/16 13:32:39;;;;;;;;;;;;;;;18.27;nan;102112.09;4914415;28;19943;-86
2023/02/16 13:35:07;;;;;;;;;;;;;;;18.33;nan;102108.31;4953693;28;19918;-85
2023/02/16 13:37:44;;;;;;;;;;;;;;;18.31;nan;102107.78;4980513;28;19925;-87
2023/02/16 13:40:10;;;;;;;;;;;;;;;18.14;nan;102103.66;4983557;28;20161;-86
2023/02/16 13:42:53;;;;;;;;;;;;;;;17.88;nan;102102.72;4982618;28;19960;-85
2023/02/16 13:45:20;;;;;;;;;;;;;;;17.63;nan;102106.91;4986355;28;19921;-88
2023/02/16 13:47:46;;;;;;;;;;;;;;;17.58;nan;102101.44;4985451;28;20012;-88
2023/02/16 13:50:26;;;;;;;;;;;;;;;17.57;nan;102104.41;4962043;28;20020;-88
2023/02/16 13:52:52;;;;;;;;;;;;;;;17.52;nan;102102.47;4976328;28;19929;-86
2023/02/16 13:55:34;;;;;;;;;;;;;;;17.50;nan;102093.81;4982623;28;19936;-87
2023/02/16 13:58:00;;;;;;;;;;;;;;;17.43;nan;102095.94;4980147;28;19977;-87
2023/02/16 14:00:27;;;;;;;;;;;;;;;17.44;nan;102101.09;4979808;28;20415;-86
2023/02/16 14:02:55;;;;;;;;;;;;;;;17.41;nan;102108.91;4977640;28;19940;-89
2023/02/16 14:08:33;;;;;;;;;;;;;;;17.16;nan;102094.09;4973657;28;19963;-87
2023/02/16 14:11:23;;;;;;;;;;;;;;;;;;;;;
2023/02/16 14:16:54;;;;;;;;;;;;;;;;;;;;;
2023/02/16 14:19:39;;;;;;;;;;;;;;;16.96;nan;102102.06;4976652;28;19922;-87
2023/02/16 14:25:22;;;;;;;;;;;;;;;17.03;nan;102110.78;4904940;29;19971;-87
2023/02/16 14:52:59;;;;;;;;;;;;;;;16.73;nan;102097.00;4885718;29;19979;-89
2023/02/16 14:55:25;;;;;;;;;;;;;;;16.76;nan;102101.91;4918983;28;19962;-88
2023/02/16 14:58:08;;;;;;;;;;;;;;;16.76;nan;102096.47;4974577;28;20053;-86
2023/02/16 15:00:36;;;;;;;;;;;;;;;16.78;nan;102097.03;4984065;28;19930;-88
2023/02/16 15:03:17;;;;;;;;;;;;;;;16.78;nan;102094.31;4975922;28;19944;-90
2023/02/16 15:05:48;;;;;;;;;;;;;;;16.77;nan;102092.69;4975338;28;19928;-87
2023/02/16 15:08:17;;;;;;;;;;;;;;;16.80;nan;102098.41;4979818;28;19926;-87
2023/02/16 15:10:45;;;;;;;;;;;;;;;16.86;nan;102091.13;4974791;28;20426;-88
2023/02/16 15:13:18;;;;;;;;;;;;;;;16.94;nan;102092.56;4984621;28;19928;-88
2023/02/16 15:15:47;;;;;;;;;;;;;;;16.99;nan;102087.19;4976887;28;19925;-86
2023/02/16 15:18:19;;;;;;;;;;;;;;;16.96;nan;102093.94;4978711;28;20392;-87
2023/02/16 15:20:47;;;;;;;;;;;;;;;16.95;nan;102092.31;4980767;28;19925;-87
2023/02/16 15:23:18;;;;;;;;;;;;;;;16.96;nan;102099.38;4977601;28;19926;-87
2023/02/16 15:25:51;;;;;;;;;;;;;;;16.95;nan;102102.34;4978402;28;19926;-86
2023/02/16 15:28:20;;;;;;;;;;;;;;;17.00;nan;102092.34;4973306;28;19976;-89
2023/02/16 15:30:51;;;;;;;;;;;;;;;17.04;nan;102096.16;4979222;28;19932;-86
2023/02/16 15:33:22;;;;;;;;;;;;;;;17.04;nan;102092.66;4970516;28;20000;-88
2023/02/16 15:35:58;;;;;;;;;;;;;;;17.06;nan;102096.75;4974844;28;19926;-88
2023/02/16 15:38:25;;;;;;;;;;;;;;;17.07;nan;102098.38;4968599;28;20010;-87
2023/02/16 15:40:53;;;;;;;;;;;;;;;17.03;nan;102096.44;4976956;28;20003;-86
2023/02/16 15:43:29;;;;;;;;;;;;;;;17.06;nan;102098.66;4973276;28;20404;-88
2023/02/16 15:45:55;;;;;;;;;;;;;;;17.03;nan;102097.25;4977411;28;20020;-86
2023/02/16 15:48:26;;;;;;;;;;;;;;;16.97;nan;102098.28;4957755;28;20434;-86
2023/02/16 15:50:54;;;;;;;;;;;;;;;16.93;nan;102097.19;4975584;28;20379;-87
2023/02/16 15:53:32;;;;;;;;;;;;;;;16.91;nan;102093.91;4968627;28;19937;-86
2023/02/16 15:56:17;;;;;;;;;;;;;;;16.86;nan;102088.44;4976973;28;20437;-86
2023/02/16 15:58:47;;;;;;;;;;;;;;;16.77;nan;102095.41;4978270;28;20344;-86
2023/02/16 16:01:22;;;;;;;;;;;;;;;16.77;nan;102098.09;4963763;28;19926;-85
2023/02/16 16:03:47;;;;;;;;;;;;;;;16.70;nan;102095.63;4974462;28;20016;-86
2023/02/16 16:06:13;;;;;;;;;;;;;;;16.67;nan;102098.00;4975937;28;19952;-86
2023/02/16 16:08:41;;;;;;;;;;;;;;;16.62;nan;102094.16;4980256;28;20315;-86
2023/02/16 16:11:19;;;;;;;;;;;;;;;16.58;nan;102086.81;4980105;28;20124;-86
2023/02/16 16:17:15;;;;;;;;;;;;;;;16.51;nan;102095.09;4969375;28;20084;-87
2023/02/16 16:23:17;;;;;;;;;;;;;;;16.48;nan;102079.38;4936212;28;20005;-85
2023/02/16 16:25:47;;;;;;;;;;;;;;;16.44;nan;102080.97;4943075;28;20384;-86
2023/02/16 16:28:53;;;;;;;;;;;;;;;16.42;nan;102085.00;4940222;28;20428;-86
2023/02/16 17:01:10;;;;;;;;;;;;;;;;;;;;;
2023/02/16 17:04:15;;;;;;;;;;;;;;;;;;;;;